Time;durP1;ratioP1;P1;durP2;ratioP2;P2;SDS_P1;SDS_P2;PMS_P1;PMS_P2;Temp;Humidity;BMP_temperature;BMP_pressure;BME280_temperature;BME280_humidity;BME280_pressure;Samples;Min_cycle;Max_cycle;Signal;HPM_P1;HPM_P2
2021/04/03 00:00:47;;;;;;;6.70;3.97;;;6.50;90.40;;;7.35;72.96;98738.59;5048008;28;20465;-78
2021/04/03 00:03:18;;;;;;;6.50;3.73;;;6.50;90.40;;;7.39;73.01;98737.31;5052893;28;20465;-79
2021/04/03 00:05:45;;;;;;;7.70;3.80;;;6.50;90.60;;;7.41;73.06;98737.16;5051921;28;20461;-78
2021/04/03 00:08:14;;;;;;;8.07;3.47;;;6.60;90.60;;;7.37;72.75;98735.81;5058069;28;20883;-78
2021/04/03 00:10:45;;;;;;;8.63;3.63;;;6.60;90.20;;;7.31;73.38;98734.66;5050597;28;22514;-79
2021/04/03 00:13:15;;;;;;;4.60;3.20;;;6.50;90.40;;;7.36;73.66;98728.97;5050840;28;20460;-79
2021/04/03 00:15:45;;;;;;;8.13;3.97;;;6.60;90.50;;;7.32;73.80;98732.88;5050253;28;20862;-79
2021/04/03 00:18:13;;;;;;;5.87;3.90;;;6.50;90.80;;;7.39;73.56;98737.31;5052014;28;20492;-79
2021/04/03 00:20:41;;;;;;;7.73;3.10;;;6.50;90.50;;;7.43;73.16;98737.81;5047761;28;20527;-78
2021/04/03 00:23:09;;;;;;;4.37;3.17;;;6.50;90.60;;;7.38;73.41;98730.50;5042793;28;20453;-79
2021/04/03 00:25:37;;;;;;;7.03;3.70;;;6.60;90.50;;;7.43;72.92;98730.03;5054677;28;20461;-78
2021/04/03 00:28:05;;;;;;;7.57;3.90;;;6.60;90.50;;;7.42;72.83;98734.44;5053492;28;20460;-78
2021/04/03 00:30:33;;;;;;;6.90;3.80;;;6.60;90.40;;;7.44;73.57;98723.84;5053698;28;20500;-78
2021/04/03 00:33:07;;;;;;;7.10;3.50;;;6.60;90.50;;;7.44;73.03;98727.28;5050990;28;20460;-78
2021/04/03 00:35:38;;;;;;;7.37;4.43;;;6.60;90.60;;;7.43;73.47;98725.63;5054833;28;20462;-79
2021/04/03 00:38:10;;;;;;;11.83;3.67;;;6.60;90.50;;;7.36;73.53;98722.00;5058522;28;20488;-79
2021/04/03 00:40:41;;;;;;;8.33;3.87;;;6.50;90.40;;;7.28;74.07;98726.31;5044543;28;20490;-78
2021/04/03 00:43:12;;;;;;;8.27;4.23;;;6.40;90.70;;;7.37;73.96;98725.41;5058625;28;20467;-78
2021/04/03 00:45:41;;;;;;;11.07;4.67;;;6.50;90.70;;;7.39;73.94;98729.50;5050526;28;20476;-79
2021/04/03 00:48:11;;;;;;;11.33;4.00;;;6.60;90.50;;;7.40;73.29;98715.53;5051620;28;20489;-79
2021/04/03 00:50:42;;;;;;;7.90;4.00;;;6.60;90.70;;;7.37;74.78;98715.84;5050686;28;20461;-78
2021/04/03 00:53:14;;;;;;;13.13;5.27;;;6.60;91.10;;;7.39;75.14;98716.50;5054820;28;20469;-79
2021/04/03 00:55:42;;;;;;;5.23;3.13;;;6.60;91.00;;;7.40;75.39;98706.91;5049667;28;20989;-79
2021/04/03 00:58:11;;;;;;;115.93;5.50;;;6.50;91.00;;;7.41;74.95;98706.78;5052474;28;20495;-78
2021/04/03 01:00:40;;;;;;;8.07;4.60;;;6.50;91.00;;;7.38;75.74;98707.06;5059752;28;20460;-78
2021/04/03 01:03:09;;;;;;;5.40;3.40;;;6.60;91.10;;;7.42;75.11;98705.81;5054127;28;20454;-78
2021/04/03 01:05:36;;;;;;;10.23;4.10;;;6.60;90.90;;;7.43;74.97;98704.81;5048951;28;20495;-79
2021/04/03 01:08:04;;;;;;;5.20;3.57;;;6.50;91.00;;;7.45;74.98;98712.50;5051926;28;20705;-78
2021/04/03 01:10:36;;;;;;;13.63;4.93;;;6.60;90.90;;;7.43;74.65;98698.78;5056701;28;20682;-78
2021/04/03 01:13:27;;;;;;;9.93;4.70;;;6.70;90.80;;;7.44;74.60;98701.25;5051470;28;20909;-79
2021/04/03 01:16:09;;;;;;;6.47;3.80;;;6.70;90.90;;;7.41;76.01;98708.56;5057337;28;20465;-79
2021/04/03 01:19:08;;;;;;;10.10;4.23;;;6.70;91.20;;;7.35;75.55;98702.19;5051522;28;20496;-79
2021/04/03 01:22:15;;;;;;;9.83;4.10;;;6.50;90.90;;;7.44;75.28;98697.84;5050903;28;20470;-78
2021/04/03 01:25:07;;;;;;;10.90;4.70;;;6.60;91.10;;;7.46;75.86;98685.50;5041614;28;20441;-79
2021/04/03 01:27:46;;;;;;;6.47;3.60;;;6.60;91.20;;;7.45;75.51;98702.91;5050320;28;20473;-79
2021/04/03 01:30:19;;;;;;;7.50;3.73;;;6.60;91.30;;;7.24;77.15;98697.19;5046627;28;20470;-79
2021/04/03 01:32:55;;;;;;;6.47;3.83;;;6.40;91.40;;;7.27;75.65;98693.47;5055154;28;20465;-78
2021/04/03 01:35:30;;;;;;;4.47;3.40;;;6.40;90.90;;;7.26;75.52;98687.44;5052649;28;20441;-78
2021/04/03 01:38:05;;;;;;;5.27;3.63;;;6.40;91.20;;;7.31;75.21;98695.63;5052699;28;20553;-78
2021/04/03 01:40:34;;;;;;;7.80;3.73;;;6.50;90.80;;;7.31;74.67;98689.59;5046061;28;20488;-78
2021/04/03 01:43:09;;;;;;;7.40;3.97;;;6.60;90.80;;;7.28;73.24;98684.72;5051097;28;20461;-79
2021/04/03 01:45:40;;;;;;;5.17;3.17;;;6.60;90.10;;;7.26;71.82;98681.44;5053198;28;20465;-79
2021/04/03 01:48:10;;;;;;;6.53;2.83;;;6.50;89.40;;;7.27;71.27;98694.28;5048061;28;20479;-79
2021/04/03 01:50:40;;;;;;;5.90;2.57;;;6.50;89.40;;;7.32;71.10;98693.84;5045828;28;20499;-78
2021/04/03 01:53:08;;;;;;;6.23;3.47;;;6.50;89.40;;;7.31;70.52;98693.03;5055189;28;20857;-79
2021/04/03 01:55:37;;;;;;;4.17;2.87;;;6.50;89.50;;;7.23;70.14;98698.16;5052695;28;20460;-79
2021/04/03 01:58:06;;;;;;;3.33;2.53;;;6.40;89.10;;;7.30;70.97;98694.00;5057026;28;20504;-79
2021/04/03 02:00:35;;;;;;;7.33;3.00;;;6.50;90.10;;;7.34;70.86;98697.09;5053967;28;20468;-79
2021/04/03 02:03:06;;;;;;;8.07;2.97;;;6.50;90.00;;;7.28;70.91;98695.13;5047861;28;20453;-78
2021/04/03 02:05:35;;;;;;;4.30;3.13;;;6.50;89.90;;;7.24;71.76;98699.81;5054823;28;20468;-78
2021/04/03 02:08:05;;;;;;;7.77;3.33;;;6.40;90.10;;;7.28;71.92;98697.72;5050821;28;20488;-78
2021/04/03 02:10:34;;;;;;;8.60;2.87;;;6.40;90.30;;;7.28;72.54;98701.13;5048031;28;20631;-78
2021/04/03 02:13:05;;;;;;;6.77;2.90;;;6.50;90.50;;;7.34;72.95;98695.31;5047176;28;20976;-79
2021/04/03 02:15:34;;;;;;;7.40;3.57;;;6.50;90.60;;;7.33;73.37;98696.28;5050153;28;20449;-78
2021/04/03 02:18:08;;;;;;;7.83;3.30;;;6.50;90.70;;;7.33;73.27;98698.88;5048134;28;20508;-79
2021/04/03 02:20:37;;;;;;;8.10;4.00;;;6.50;90.60;;;7.29;74.57;98694.94;5054870;28;20453;-78
2021/04/03 02:23:05;;;;;;;5.00;3.40;;;6.40;90.90;;;7.25;75.91;98693.63;5044895;28;20979;-78
2021/04/03 02:25:33;;;;;;;12.70;4.37;;;6.40;91.20;;;7.24;75.94;98699.81;5052670;28;20438;-78
2021/04/03 02:28:02;;;;;;;6.70;4.53;;;6.40;91.10;;;7.24;76.01;98689.41;5052967;28;20527;-79
2021/04/03 02:30:30;;;;;;;7.40;4.13;;;6.50;91.10;;;7.27;75.87;98694.28;5051271;28;20461;-79
2021/04/03 02:32:58;;;;;;;5.20;3.47;;;6.50;91.10;;;7.32;76.34;98697.28;5048320;28;20461;-79
2021/04/03 02:35:29;;;;;;;6.73;4.23;;;6.40;91.20;;;7.33;76.14;98688.47;5050131;28;20461;-79
2021/04/03 02:38:00;;;;;;;13.87;4.10;;;6.50;91.50;;;7.34;76.19;98690.13;5055794;28;20492;-79
2021/04/03 02:40:31;;;;;;;8.83;4.00;;;6.50;91.40;;;7.27;77.36;98694.28;5049688;28;20562;-79
2021/04/03 02:43:06;;;;;;;9.47;4.63;;;6.40;91.80;;;7.29;77.55;98692.34;5051093;28;20519;-78
2021/04/03 02:45:40;;;;;;;8.37;4.60;;;6.40;91.70;;;7.19;78.52;98691.63;5047407;28;20465;-78
2021/04/03 02:48:19;;;;;;;5.63;4.20;;;6.30;91.80;;;7.26;78.29;98697.03;5055536;28;20472;-79
2021/04/03 02:50:56;;;;;;;7.30;4.53;;;6.50;91.70;;;7.23;78.10;98682.56;5047437;28;20948;-79
2021/04/03 02:53:30;;;;;;;6.53;3.70;;;6.40;91.70;;;7.24;77.78;98688.56;5042457;28;20806;-79
2021/04/03 02:56:02;;;;;;;10.20;3.90;;;6.40;91.50;;;7.24;77.40;98689.41;5051265;28;20471;-78
2021/04/03 02:58:35;;;;;;;8.90;4.07;;;6.50;91.40;;;7.22;77.57;98685.31;5050443;28;20484;-79
2021/04/03 03:01:07;;;;;;;7.17;3.87;;;6.20;91.40;;;7.26;77.42;98689.22;5054142;28;20809;-79
2021/04/03 03:03:38;;;;;;;6.93;4.20;;;6.40;91.50;;;7.22;77.76;98686.09;5052193;28;20462;-79
2021/04/03 03:06:08;;;;;;;9.73;4.60;;;6.40;91.60;;;7.15;77.89;98700.69;5050275;28;20956;-79
2021/04/03 03:08:39;;;;;;;10.13;4.57;;;6.40;91.50;;;7.19;77.36;98699.41;5051457;28;20461;-79
2021/04/03 03:11:08;;;;;;;13.93;4.80;;;6.40;91.40;;;7.24;77.35;98699.81;5051322;28;20676;-79
2021/04/03 03:13:36;;;;;;;9.13;4.53;;;6.50;91.50;;;7.22;78.35;98701.72;5048710;28;20514;-78
2021/04/03 03:16:07;;;;;;;15.73;4.40;;;6.40;91.60;;;7.22;77.44;98698.31;5052117;28;20453;-78
2021/04/03 03:18:39;;;;;;;8.07;4.10;;;6.40;91.50;;;7.27;77.12;98701.28;5063700;28;21004;-79
2021/04/03 03:21:09;;;;;;;11.70;4.63;;;6.40;91.40;;;7.22;77.03;98706.13;5052008;28;20472;-79
2021/04/03 03:23:37;;;;;;;8.90;4.30;;;6.40;91.40;;;7.27;77.68;98702.09;5052742;28;20460;-79
2021/04/03 03:26:05;;;;;;;7.07;3.87;;;6.40;91.60;;;7.25;77.33;98696.25;5055108;28;20843;-79
2021/04/03 03:28:34;;;;;;;6.00;4.37;;;6.30;91.70;;;7.29;77.59;98692.34;5059683;28;20521;-79
2021/04/03 03:31:02;;;;;;;7.30;4.23;;;6.40;91.80;;;7.27;78.02;98691.69;5041336;28;20461;-79
2021/04/03 03:33:30;;;;;;;6.77;3.60;;;6.30;91.90;;;7.26;77.87;98697.84;5052875;28;20464;-79
2021/04/03 03:35:58;;;;;;;12.23;3.87;;;6.40;91.50;;;7.29;77.59;98701.97;5049157;28;20465;-78
2021/04/03 03:38:26;;;;;;;8.33;4.20;;;6.40;91.60;;;7.30;77.95;98699.19;5050488;28;20549;-79
2021/04/03 03:40:56;;;;;;;6.77;4.30;;;6.40;91.60;;;7.33;77.89;98698.06;5049521;28;20500;-79
2021/04/03 03:43:25;;;;;;;6.63;4.17;;;6.40;91.80;;;7.27;77.87;98702.09;5048079;28;20459;-79
2021/04/03 03:45:53;;;;;;;68.53;28.07;;;6.40;91.60;;;7.23;78.07;98703.34;5044491;28;20459;-80
2021/04/03 03:48:20;;;;;;;14.73;7.00;;;6.40;91.90;;;7.30;78.64;98709.59;5044498;28;20491;-80
2021/04/03 03:50:48;;;;;;;8.83;4.50;;;6.40;91.90;;;7.31;78.55;98706.03;5039618;28;20485;-78
2021/04/03 03:53:16;;;;;;;13.93;4.67;;;6.40;91.90;;;7.29;78.81;98707.16;5046904;28;21002;-78
2021/04/03 03:55:44;;;;;;;15.00;5.30;;;6.30;91.90;;;7.29;78.80;98713.16;5052200;28;20449;-78
2021/04/03 03:58:12;;;;;;;7.33;4.53;;;6.40;92.20;;;7.29;79.30;98717.56;5053295;28;20480;-79
2021/04/03 04:00:39;;;;;;;9.03;4.90;;;6.30;92.30;;;7.31;79.78;98716.44;5050101;28;20449;-78
2021/04/03 04:03:07;;;;;;;8.93;5.63;;;6.30;92.20;;;7.28;79.58;98708.13;5052108;28;20430;-82
2021/04/03 04:05:34;;;;;;;11.17;5.73;;;6.40;92.40;;;7.27;80.43;98709.91;5047243;28;20491;-81
2021/04/03 04:08:02;;;;;;;9.90;5.23;;;6.40;92.60;;;7.23;81.00;98713.75;5054535;28;20477;-78
2021/04/03 04:10:29;;;;;;;11.63;5.00;;;6.40;92.40;;;7.27;80.54;98709.09;5054386;28;20499;-78
2021/04/03 04:12:58;;;;;;;12.00;4.73;;;6.40;92.60;;;7.24;81.21;98704.19;5060577;28;20464;-78
2021/04/03 04:15:25;;;;;;;11.00;4.80;;;6.40;92.50;;;7.19;82.02;98704.63;5057797;28;20828;-78
2021/04/03 04:17:53;;;;;;;9.63;5.33;;;6.30;92.80;;;7.22;81.64;98701.72;5052254;28;20499;-78
2021/04/03 04:20:21;;;;;;;10.23;5.50;;;6.30;92.90;;;7.22;82.23;98693.91;5052897;28;20499;-76
2021/04/03 04:22:49;;;;;;;9.07;5.00;;;6.30;92.90;;;7.13;82.28;98691.41;5053133;28;20470;-76
2021/04/03 04:25:16;;;;;;;10.33;5.50;;;6.20;92.70;;;7.13;82.57;98694.00;5053834;28;20444;-76
2021/04/03 04:27:44;;;;;;;15.83;4.43;;;6.20;92.80;;;7.16;82.08;98698.91;5053764;28;20798;-77
2021/04/03 04:30:14;;;;;;;9.83;4.60;;;6.20;92.80;;;7.08;82.28;98697.03;5057098;28;20450;-76
2021/04/03 04:32:44;;;;;;;9.87;4.93;;;6.20;92.80;;;7.10;82.08;98697.72;5049682;28;20449;-77
2021/04/03 04:35:13;;;;;;;8.70;5.23;;;6.20;92.70;;;7.13;82.13;98696.59;5058206;28;20436;-77
2021/04/03 04:37:42;;;;;;;11.77;5.47;;;6.30;92.60;;;7.04;82.59;98706.13;5053003;28;20540;-77
2021/04/03 04:40:13;;;;;;;14.77;6.73;;;6.20;92.80;;;7.04;82.36;98716.53;5057644;28;20441;-78
2021/04/03 04:42:42;;;;;;;7.50;5.00;;;6.10;92.80;;;6.98;83.60;98730.09;5055397;28;20889;-77
2021/04/03 04:45:12;;;;;;;13.73;6.40;;;6.00;93.10;;;6.97;83.96;98738.88;5053753;28;20453;-77
2021/04/03 04:47:40;;;;;;;18.53;6.47;;;6.10;93.40;;;7.00;84.39;98736.81;5055326;28;20515;-77
2021/04/03 04:50:10;;;;;;;12.70;6.00;;;6.20;93.30;;;6.95;85.35;98743.38;5053699;28;20453;-77
2021/04/03 04:52:38;;;;;;;14.33;7.27;;;6.10;93.50;;;6.82;86.22;98751.56;5056384;28;20963;-77
2021/04/03 04:55:07;;;;;;;10.80;5.80;;;6.00;93.50;;;6.71;86.26;98748.31;5050466;28;20551;-77
2021/04/03 04:57:35;;;;;;;15.73;6.17;;;5.90;93.50;;;6.61;88.15;98744.97;5053379;28;20485;-77
2021/04/03 05:00:03;;;;;;;16.40;5.93;;;5.70;93.90;;;6.70;86.57;98755.28;5054645;28;20475;-77
2021/04/03 05:02:32;;;;;;;17.50;6.73;;;5.90;93.60;;;6.67;87.28;98754.78;5052844;28;20446;-77
2021/04/03 05:05:00;;;;;;;14.97;6.43;;;5.80;93.80;;;6.74;86.65;98758.44;5049208;28;20465;-77
2021/04/03 05:07:27;;;;;;;13.87;6.80;;;5.90;93.70;;;6.70;86.79;98762.31;5053770;28;20433;-77
2021/04/03 05:09:55;;;;;;;11.53;5.60;;;5.90;93.70;;;6.67;87.72;98757.38;5047196;28;20447;-77
2021/04/03 05:12:22;;;;;;;9.90;6.60;;;5.90;94.00;;;6.71;87.64;98758.72;5050704;28;20441;-77
2021/04/03 05:14:50;;;;;;;9.20;6.10;;;5.80;93.90;;;6.72;88.02;98765.56;5055651;28;20437;-77
2021/04/03 05:17:18;;;;;;;20.87;5.50;;;5.80;94.00;;;6.69;88.09;98766.69;5054924;28;20455;-77
2021/04/03 05:19:46;;;;;;;15.47;5.73;;;5.90;94.00;;;6.72;87.90;98770.75;5054052;28;20459;-77
2021/04/03 05:22:14;;;;;;;20.53;6.70;;;5.90;94.00;;;6.71;88.24;98771.72;5056009;28;20771;-77
2021/04/03 05:24:41;;;;;;;10.13;5.67;;;5.80;94.10;;;6.78;87.74;98775.38;5061944;28;20820;-77
2021/04/03 05:27:09;;;;;;;24.20;6.50;;;5.90;94.00;;;6.56;88.26;98776.56;5056220;28;20444;-77
2021/04/03 05:29:36;;;;;;;12.47;5.00;;;5.80;94.00;;;6.59;88.56;98782.28;5051022;28;20485;-77
2021/04/03 05:32:06;;;;;;;14.73;5.90;;;5.80;94.00;;;6.63;87.81;98779.44;5054502;28;20446;-77
2021/04/03 05:34:34;;;;;;;13.80;6.33;;;5.80;93.80;;;6.68;87.71;98767.63;5054304;28;20437;-77
2021/04/03 05:37:18;;;;;;;13.30;5.43;;;5.80;93.80;;;6.67;87.30;98783.34;5053610;28;20448;-77
2021/04/03 05:39:46;;;;;;;13.83;5.40;;;5.90;93.60;;;6.69;87.13;98779.66;5055532;28;20441;-77
2021/04/03 05:42:18;;;;;;;15.13;5.73;;;5.90;93.70;;;6.69;87.84;98779.66;5053516;28;20484;-77
2021/04/03 05:44:47;;;;;;;12.70;5.80;;;5.80;94.00;;;6.64;88.19;98787.06;5052137;28;20441;-77
2021/04/03 05:47:15;;;;;;;13.17;5.67;;;5.70;93.90;;;6.61;88.71;98782.16;5046253;28;20438;-77
2021/04/03 05:49:44;;;;;;;19.80;5.50;;;5.70;93.90;;;6.52;88.62;98783.84;5051908;28;20449;-77
2021/04/03 05:52:11;;;;;;;16.47;5.70;;;5.70;94.10;;;6.58;88.57;98785.88;5051879;28;20937;-77
2021/04/03 05:54:40;;;;;;;11.50;5.00;;;5.80;94.10;;;6.68;88.51;98796.22;5059825;28;20828;-77
2021/04/03 05:57:09;;;;;;;17.73;5.87;;;5.90;94.00;;;6.50;89.40;98797.94;5051876;28;20433;-78
2021/04/03 05:59:37;;;;;;;16.37;6.20;;;5.70;94.30;;;6.55;89.16;98809.53;5051689;28;20445;-77
2021/04/03 06:02:05;;;;;;;15.50;6.20;;;5.80;94.40;;;6.43;90.11;98802.88;5044972;28;20452;-77
2021/04/03 06:04:33;;;;;;;15.80;7.40;;;5.60;94.40;;;6.39;90.64;98800.69;5050921;28;20469;-77
2021/04/03 06:07:01;;;;;;;20.83;7.30;;;5.60;94.60;;;6.52;89.59;98796.84;5052761;28;20449;-77
2021/04/03 06:09:29;;;;;;;17.47;6.87;;;5.70;94.20;;;6.56;88.85;98807.75;5052115;28;20450;-77
2021/04/03 06:11:58;;;;;;;20.33;7.90;;;5.70;94.00;;;6.48;89.88;98812.84;5052079;28;20442;-77
2021/04/03 06:14:25;;;;;;;19.40;7.53;;;5.60;94.20;;;6.39;89.98;98816.28;5050444;28;20925;-77
2021/04/03 06:16:53;;;;;;;17.37;7.50;;;5.60;94.20;;;6.38;90.53;98815.50;5051782;28;20457;-77
2021/04/03 06:19:23;;;;;;;18.47;7.47;;;5.60;94.50;;;6.33;90.94;98817.66;5050345;28;20581;-77
2021/04/03 06:21:57;;;;;;;16.70;8.70;;;5.50;94.60;;;6.40;91.01;98825.72;5047628;28;20437;-77
2021/04/03 06:24:29;;;;;;;15.30;8.30;;;5.60;94.60;;;6.46;90.24;98818.16;5052648;28;20461;-77
2021/04/03 06:27:06;;;;;;;18.43;8.20;;;5.70;94.50;;;6.43;90.89;98828.84;5053767;28;20473;-77
2021/04/03 06:29:43;;;;;;;19.30;7.10;;;5.60;94.60;;;6.30;91.76;98823.16;5051632;28;20460;-77
2021/04/03 06:32:23;;;;;;;17.80;8.13;;;5.40;94.50;;;6.27;91.70;98815.66;5051485;28;20502;-77
2021/04/03 06:34:54;;;;;;;21.73;8.80;;;5.40;94.70;;;6.33;92.27;98822.03;5047729;28;20441;-77
2021/04/03 06:37:26;;;;;;;20.60;8.27;;;5.50;94.90;;;6.35;91.82;98815.75;5047526;28;20445;-77
2021/04/03 06:39:58;;;;;;;31.03;9.53;;;5.50;94.60;;;6.44;90.92;98817.50;5051173;28;20780;-77
2021/04/03 06:42:46;;;;;;;23.73;8.60;;;5.60;94.60;;;6.43;90.28;98823.66;5051142;28;20452;-77
2021/04/03 06:45:29;;;;;;;20.37;9.23;;;5.60;94.40;;;6.40;90.56;98813.56;5051224;28;20450;-77
2021/04/03 06:48:01;;;;;;;30.83;8.13;;;5.60;94.50;;;6.37;90.93;98820.81;5050052;28;20468;-77
2021/04/03 06:50:31;;;;;;;19.50;7.60;;;5.50;94.50;;;6.35;90.50;98823.53;5050777;28;20433;-77
2021/04/03 06:53:05;;;;;;;16.47;7.40;;;5.50;94.30;;;6.33;89.11;98830.66;5052946;28;20976;-77
2021/04/03 06:55:35;;;;;;;17.90;7.70;;;5.50;93.90;;;6.13;90.21;98836.03;5052906;28;20799;-77
2021/04/03 06:58:06;;;;;;;20.00;7.70;;;5.20;94.60;;;6.20;90.06;98845.72;5052549;28;20500;-77
2021/04/03 07:00:36;;;;;;;15.33;7.17;;;5.40;94.30;;;6.24;90.61;98848.88;5052384;28;20445;-77
2021/04/03 07:03:16;;;;;;;14.70;7.07;;;5.40;94.30;;;6.37;89.86;98845.00;5052233;28;20445;-77
2021/04/03 07:05:46;;;;;;;15.33;6.03;;;5.50;94.20;;;6.45;88.87;98854.69;5051424;28;20956;-77
2021/04/03 07:08:16;;;;;;;23.07;7.00;;;5.70;94.00;;;6.47;88.49;98848.41;5050631;28;20437;-77
2021/04/03 07:10:46;;;;;;;13.97;6.90;;;5.70;93.80;;;6.34;89.09;98845.28;5049327;28;20457;-77
2021/04/03 07:13:15;;;;;;;14.87;7.17;;;5.60;94.00;;;6.32;89.14;98851.56;5048980;28;20802;-77
2021/04/03 07:15:46;;;;;;;17.67;7.53;;;5.60;93.80;;;6.22;89.99;98850.78;5048327;28;20441;-77
2021/04/03 07:18:18;;;;;;;17.60;6.83;;;5.40;94.30;;;6.30;90.20;98846.53;5050769;28;20523;-77
2021/04/03 07:20:46;;;;;;;13.10;7.37;;;5.60;94.30;;;6.22;89.76;98851.59;5052806;28;21158;-77
2021/04/03 07:23:17;;;;;;;16.40;7.60;;;5.40;94.00;;;6.37;89.86;98849.38;5050983;28;20449;-77
2021/04/03 07:25:47;;;;;;;22.07;7.37;;;5.60;94.10;;;6.35;89.69;98843.53;5051335;28;20781;-77
2021/04/03 07:28:15;;;;;;;24.43;6.30;;;5.60;94.10;;;6.35;89.29;98844.31;5045048;28;20445;-77
2021/04/03 07:30:45;;;;;;;12.17;7.10;;;5.60;94.10;;;6.32;89.31;98847.19;5052896;28;20461;-77
2021/04/03 07:33:15;;;;;;;15.37;7.30;;;5.50;94.10;;;6.35;90.07;98846.91;5053700;28;20437;-77
2021/04/03 07:35:48;;;;;;;17.90;7.23;;;5.50;94.30;;;6.42;89.24;98847.97;5050413;28;20433;-77
2021/04/03 07:38:22;;;;;;;18.30;7.37;;;5.60;94.30;;;6.49;88.66;98843.06;5051835;28;20506;-77
2021/04/03 07:40:51;;;;;;;21.00;6.73;;;5.70;93.90;;;6.64;88.58;98851.19;5053772;28;20472;-77
2021/04/03 07:43:39;;;;;;;21.30;6.77;;;5.90;94.00;;;6.68;87.27;98860.34;5055585;28;20441;-77
2021/04/03 07:46:10;;;;;;;13.63;6.43;;;5.90;93.60;;;6.75;87.86;98867.44;5054530;28;20905;-77
2021/04/03 07:48:54;;;;;;;15.53;5.50;;;6.00;93.80;;;6.73;87.77;98861.59;5055423;28;20468;-77
2021/04/03 07:51:46;;;;;;;18.30;6.77;;;6.00;93.70;;;6.61;87.63;98867.09;5052772;28;20779;-78
2021/04/03 07:54:30;;;;;;;15.37;5.30;;;5.90;93.80;;;6.64;88.00;98872.00;5063501;28;20439;-77
2021/04/03 07:57:08;;;;;;;11.90;5.27;;;5.80;93.90;;;6.74;87.59;98877.97;5045604;28;20523;-77
2021/04/03 07:59:56;;;;;;;8.93;4.07;;;5.90;93.70;;;6.78;86.39;98884.53;5054453;28;20519;-77
2021/04/03 08:02:30;;;;;;;18.90;5.10;;;6.00;93.60;;;6.79;86.82;98887.00;5051059;28;20463;-77
2021/04/03 08:04:58;;;;;;;17.13;4.77;;;6.00;93.70;;;6.87;84.45;98881.09;5054203;28;20457;-77
2021/04/03 08:07:26;;;;;;;10.40;4.43;;;6.10;92.90;;;6.88;83.70;98880.13;5044878;28;20444;-77
2021/04/03 08:09:54;;;;;;;16.23;3.93;;;6.00;92.60;;;6.88;82.86;98891.34;5049539;28;20452;-77
2021/04/03 08:12:24;;;;;;;9.77;3.73;;;6.10;92.60;;;6.89;82.53;98884.34;5053523;28;20572;-77
2021/04/03 08:14:57;;;;;;;8.87;3.20;;;6.00;92.60;;;7.04;82.66;98893.34;5054935;28;20448;-77
2021/04/03 08:17:26;;;;;;;7.47;2.80;;;6.20;92.50;;;7.09;80.18;98891.94;5053416;28;20964;-77
2021/04/03 08:20:00;;;;;;;6.37;3.03;;;6.20;91.90;;;7.00;79.26;98889.38;5054338;28;20520;-78
2021/04/03 08:22:28;;;;;;;5.33;2.80;;;6.20;91.60;;;7.02;78.04;98900.44;5053630;28;20943;-77
2021/04/03 08:25:01;;;;;;;13.37;3.40;;;6.20;91.30;;;6.86;78.44;98895.88;5054073;28;20448;-77
2021/04/03 08:27:37;;;;;;;12.97;3.40;;;6.00;91.40;;;6.86;77.57;98892.44;5057094;28;20452;-77
2021/04/03 08:30:23;;;;;;;8.90;3.40;;;6.10;91.20;;;6.99;77.61;98908.53;5060130;28;20448;-77
2021/04/03 08:33:06;;;;;;;6.37;2.30;;;6.20;91.30;;;6.99;75.90;98904.16;5053852;28;20455;-77
2021/04/03 08:35:36;;;;;;;3.80;2.33;;;6.20;90.60;;;6.99;75.42;98900.72;5053285;28;20469;-78
2021/04/03 08:38:09;;;;;;;8.67;2.40;;;6.20;90.60;;;7.03;74.84;98907.28;5055944;28;20534;-77
2021/04/03 08:40:37;;;;;;;10.20;2.43;;;6.20;90.50;;;7.05;72.25;98913.16;5054048;28;20476;-77
2021/04/03 08:43:05;;;;;;;13.97;2.63;;;6.20;89.60;;;7.10;71.97;98913.56;5053341;28;20455;-77
2021/04/03 08:45:40;;;;;;;5.20;2.33;;;6.30;89.90;;;6.96;72.72;98911.41;5054316;28;20525;-77
2021/04/03 08:48:10;;;;;;;8.60;2.27;;;6.10;90.30;;;7.03;73.06;98913.31;5053550;28;20471;-77
2021/04/03 08:50:39;;;;;;;4.80;2.03;;;6.20;90.30;;;7.08;72.40;98915.47;5052952;28;20460;-77
2021/04/03 08:53:07;;;;;;;5.03;2.13;;;6.20;90.10;;;7.05;71.05;98923.56;5050808;28;20456;-77
2021/04/03 08:55:35;;;;;;;4.93;2.53;;;6.20;89.60;;;7.10;69.85;98926.56;5060573;28;20843;-77
2021/04/03 08:58:05;;;;;;;4.23;2.00;;;6.30;88.90;;;6.90;67.49;98925.00;5052900;28;20566;-77
2021/04/03 09:00:38;;;;;;;7.83;2.00;;;6.00;87.20;;;6.85;66.49;98920.22;5053209;28;20971;-77
2021/04/03 09:03:06;;;;;;;4.57;1.90;;;6.00;86.60;;;6.92;66.34;98917.88;5057654;28;20885;-77
2021/04/03 09:05:33;;;;;;;2.67;1.70;;;6.20;86.50;;;6.98;66.99;98928.50;5049477;28;20491;-77
2021/04/03 09:08:01;;;;;;;8.07;2.20;;;6.20;87.60;;;7.03;68.55;98930.69;5053835;28;20869;-77
2021/04/03 09:10:39;;;;;;;4.57;1.90;;;6.30;88.20;;;6.92;69.61;98929.09;5047808;28;20440;-77
2021/04/03 09:13:14;;;;;;;4.67;2.07;;;6.20;88.80;;;6.96;70.19;98934.81;5052348;28;20941;-77
2021/04/03 09:15:46;;;;;;;6.43;2.13;;;6.20;89.20;;;6.96;70.54;98934.81;5051457;28;20451;-77
2021/04/03 09:18:15;;;;;;;2.70;2.10;;;6.20;89.20;;;7.02;71.05;98926.44;5054238;28;20662;-77
2021/04/03 09:20:50;;;;;;;5.60;2.17;;;6.30;89.80;;;7.02;70.35;98929.03;5054060;28;20445;-77
2021/04/03 09:23:24;;;;;;;5.60;2.00;;;6.30;89.20;;;7.09;70.04;98936.13;5054454;28;20449;-77
2021/04/03 09:26:02;;;;;;;7.43;3.07;;;6.40;89.10;;;7.09;70.55;98919.72;5052877;28;20930;-78
2021/04/03 09:28:39;;;;;;;9.73;1.93;;;6.30;89.30;;;7.17;70.29;98937.22;5052421;28;20465;-78
2021/04/03 09:31:10;;;;;;;8.10;2.03;;;6.40;89.10;;;7.24;69.09;98933.06;5050821;28;20456;-77
2021/04/03 09:33:49;;;;;;;9.70;2.53;;;6.50;88.50;;;7.32;69.37;98947.00;5055976;28;20864;-77
2021/04/03 09:36:19;;;;;;;8.37;2.07;;;6.60;89.50;;;7.45;68.86;98941.47;5047209;28;20437;-77
2021/04/03 09:38:47;;;;;;;7.10;2.60;;;6.80;88.70;;;7.53;67.87;98939.75;5052350;28;20649;-77
2021/04/03 09:41:27;;;;;;;6.60;2.83;;;6.90;87.80;;;7.66;66.92;98928.19;5053793;28;20484;-77
2021/04/03 09:43:55;;;;;;;3.60;2.60;;;7.00;87.70;;;7.77;65.80;98930.59;5046285;28;20505;-77
2021/04/03 09:46:24;;;;;;;6.50;2.67;;;7.10;86.50;;;7.83;65.25;98933.41;5050275;28;20948;-78
2021/04/03 09:48:52;;;;;;;7.13;2.83;;;7.20;86.30;;;7.93;63.90;98939.38;5053581;28;20457;-77
2021/04/03 09:51:21;;;;;;;4.87;2.50;;;7.30;85.60;;;7.95;63.87;98939.22;5053772;28;20999;-77
2021/04/03 09:53:51;;;;;;;6.53;2.67;;;7.30;85.80;;;8.00;64.29;98932.59;5059863;28;20820;-77
2021/04/03 09:56:19;;;;;;;13.23;2.00;;;7.40;86.40;;;7.97;63.09;98940.72;5054338;28;20452;-78
2021/04/03 09:58:49;;;;;;;3.97;1.90;;;7.30;85.10;;;8.05;63.57;98950.41;5053223;28;20497;-78
2021/04/03 10:01:16;;;;;;;6.00;2.40;;;7.40;85.70;;;8.10;63.06;98942.94;5051546;28;20951;-78
2021/04/03 10:03:45;;;;;;;4.00;1.97;;;7.40;85.60;;;8.19;63.01;98943.84;5057400;28;20450;-77
2021/04/03 10:06:13;;;;;;;5.53;2.20;;;7.50;85.50;;;8.27;63.65;98938.69;5047951;28;20454;-77
2021/04/03 10:08:41;;;;;;;5.23;2.33;;;7.60;85.90;;;8.33;62.75;98936.31;5051617;28;20437;-78
2021/04/03 10:11:09;;;;;;;13.93;2.60;;;7.60;85.10;;;8.31;61.63;98933.06;5052434;28;20453;-78
2021/04/03 10:13:37;;;;;;;6.97;2.40;;;7.60;84.10;;;8.33;61.55;98944.16;5049653;28;20972;-77
2021/04/03 10:16:06;;;;;;;7.30;1.57;;;7.60;84.50;;;8.37;61.45;98958.50;5052087;28;20484;-77
2021/04/03 10:18:34;;;;;;;15.60;4.10;;;7.60;84.90;;;8.35;61.17;98944.81;5042521;28;20485;-78
2021/04/03 10:21:05;;;;;;;6.27;1.93;;;7.60;84.30;;;8.37;60.87;98940.28;5051314;28;20442;-77
2021/04/03 10:23:33;;;;;;;5.60;2.07;;;7.60;84.30;;;8.45;60.80;98936.91;5051683;28;20460;-77
2021/04/03 10:26:00;;;;;;;6.83;3.23;;;7.70;84.70;;;8.57;60.55;98938.31;5051669;28;20444;-78
2021/04/03 10:28:28;;;;;;;7.80;2.90;;;7.80;84.40;;;8.64;59.17;98936.75;5051251;28;20535;-77
2021/04/03 10:30:57;;;;;;;6.40;2.30;;;7.90;83.10;;;8.67;58.64;98935.63;5052517;28;20515;-77
2021/04/03 10:33:24;;;;;;;9.83;2.47;;;8.00;82.90;;;8.70;58.16;98935.31;5055679;28;20445;-77
2021/04/03 10:35:52;;;;;;;11.37;2.27;;;7.90;82.20;;;8.76;58.48;98929.47;5048227;28;20820;-78
2021/04/03 10:38:21;;;;;;;8.23;2.13;;;8.00;83.20;;;8.82;58.73;98926.25;5055242;28;20607;-78
2021/04/03 10:40:49;;;;;;;8.37;2.33;;;8.10;83.50;;;8.74;58.36;98940.06;5053570;28;20487;-78
2021/04/03 10:43:17;;;;;;;5.17;2.30;;;7.90;82.80;;;8.73;57.80;98924.56;5050951;28;20499;-77
2021/04/03 10:45:45;;;;;;;10.20;1.90;;;8.00;82.30;;;8.75;58.21;98925.22;5051508;28;20445;-78